Time;durP1;ratioP1;P1;durP2;ratioP2;P2;SDS_P1;SDS_P2;PMS_P1;PMS_P2;Temp;Humidity;BMP_temperature;BMP_pressure;BME280_temperature;BME280_humidity;BME280_pressure;Samples;Min_cycle;Max_cycle;Signal;HPM_P1;HPM_P2
2020/12/14 09:10:23;;;;;;;20.87;15.97;;;;;;;5.14;98.80;98772.59;5226053;22;20674;-83
2020/12/14 09:12:50;;;;;;;19.00;14.93;;;;;;;5.82;99.15;98781.88;5064374;28;39008;-80
2020/12/14 09:15:17;;;;;;;16.47;13.83;;;;;;;6.23;97.42;98766.91;5067365;28;42331;-81
2020/12/14 09:17:45;;;;;;;14.67;12.93;;;;;;;6.61;94.15;98746.69;5068291;28;43249;-80
2020/12/14 09:20:12;;;;;;;15.27;13.13;;;;;;;7.08;91.14;98765.41;5091182;28;43510;-80
2020/12/14 09:22:40;;;;;;;16.47;14.77;;;;;;;7.54;86.02;98776.28;5170610;22;40968;-80
2020/12/14 09:25:07;;;;;;;14.03;12.53;;;;;;;7.80;82.58;98777.53;5104415;28;41060;-80
2020/12/14 09:27:36;;;;;;;14.67;13.13;;;;;;;7.91;81.98;98769.94;5089458;27;42729;-81
2020/12/14 09:30:04;;;;;;;14.30;12.80;;;;;;;8.11;79.95;98782.03;5105272;28;42792;-80
2020/12/14 09:35:05;;;;;;;13.43;12.07;;;;;;;8.45;76.52;98786.38;5010195;28;41944;-81
2020/12/14 09:37:32;;;;;;;14.07;12.67;;;;;;;8.53;76.54;98773.63;5044446;28;43125;-82
2020/12/14 09:40:01;;;;;;;13.43;12.13;;;;;;;8.70;74.20;98789.34;5027715;28;42172;-80
2020/12/14 09:42:29;;;;;;;13.27;12.00;;;;;;;8.70;73.51;98775.31;5013913;28;40295;-81
2020/12/14 09:44:57;;;;;;;13.87;12.53;;;;;;;8.89;73.13;98803.25;5139423;22;42962;-81
2020/12/14 09:47:25;;;;;;;14.77;13.27;;;;;;;8.88;72.41;98788.34;5086977;28;43480;-81
2020/12/14 09:49:52;;;;;;;13.90;12.50;;;;;;;9.11;71.63;98797.59;5086883;28;43747;-81
2020/12/14 09:52:19;;;;;;;13.27;11.97;;;;;;;9.26;71.20;98795.84;5087323;28;40940;-81
2020/12/14 09:54:46;;;;;;;12.73;11.43;;;;;;;9.31;71.60;98773.47;5087206;28;42363;-80
2020/12/14 09:57:13;;;;;;;12.90;11.80;;;;;;;9.64;70.22;98775.91;5178645;22;43688;-81
2020/12/14 09:59:40;;;;;;;13.60;12.40;;;;;;;9.84;68.61;98790.59;5066179;28;42101;-80
2020/12/14 10:02:08;;;;;;;13.03;11.73;;;;;;;9.95;68.11;98784.66;5083090;28;39508;-82
2020/12/14 10:04:35;;;;;;;12.07;11.03;;;;;;;10.21;66.29;98797.16;5083782;28;41671;-81
2020/12/14 10:07:02;;;;;;;11.50;10.50;;;;;;;10.11;66.14;98776.63;5102669;28;42655;-80
2020/12/14 10:09:29;;;;;;;10.83;9.83;;;;;;;10.07;66.11;98795.31;5189541;22;42706;-80
2020/12/14 10:11:56;;;;;;;10.87;9.87;;;;;;;10.02;66.72;98794.75;5087293;28;41307;-80
2020/12/14 10:14:24;;;;;;;10.30;9.40;;;;;;;9.84;67.42;98765.94;5087407;27;43454;-81
2020/12/14 10:16:51;;;;;;;10.77;9.83;;;;;;;9.78;66.52;98776.88;5106825;27;43406;-81
2020/12/14 10:19:19;;;;;;;10.10;9.20;;;;;;;9.85;66.95;98783.50;5196072;22;42211;-81
2020/12/14 10:21:46;;;;;;;10.40;9.40;;;;;;;9.80;66.54;98786.41;5068757;28;38691;-81
2020/12/14 10:24:13;;;;;;;9.57;8.73;;;;;;;9.82;67.21;98773.09;5097318;28;42161;-81
2020/12/14 10:26:40;;;;;;;10.27;9.30;;;;;;;9.83;65.84;98790.69;5073622;28;44564;-79
2020/12/14 10:29:08;;;;;;;9.70;8.90;;;;;;;10.22;65.66;98792.72;5089490;28;41874;-81
2020/12/14 10:31:35;;;;;;;9.87;8.97;;;;;;;11.32;63.57;98797.94;5159727;22;40585;-81
2020/12/14 10:34:02;;;;;;;9.83;8.93;;;;;;;11.55;61.28;98800.84;5069066;28;42523;-80
2020/12/14 10:36:30;;;;;;;8.90;8.20;;;;;;;12.62;59.18;98807.53;5052595;28;43225;-82
2020/12/14 10:38:58;;;;;;;8.87;7.83;;;;;;;12.99;58.05;98798.59;5067662;28;42440;-82
2020/12/14 10:41:25;;;;;;;8.80;8.00;;;;;;;14.00;55.23;98829.13;5075169;28;40873;-81
2020/12/14 10:43:53;;;;;;;8.27;7.57;;;;;;;14.68;53.40;98826.44;5156806;22;43007;-82
2020/12/14 10:46:24;;;;;;;8.30;7.57;;;;;;;13.95;53.91;98826.00;5087382;28;44428;-81
2020/12/14 10:48:51;;;;;;;9.67;8.87;;;;;;;14.56;53.13;98827.41;5055576;28;43395;-81
2020/12/14 10:51:18;;;;;;;8.80;8.10;;;;;;;14.17;52.98;98830.50;5080529;28;39953;-81
2020/12/14 10:53:46;;;;;;;9.50;8.70;;;;;;;14.44;51.99;98836.38;5098440;28;41558;-81
2020/12/14 10:56:15;;;;;;;8.53;7.83;;;;;;;15.14;50.15;98840.53;5191812;22;42813;-82
2020/12/14 10:58:42;;;;;;;7.73;7.13;;;;;;;16.06;48.23;98858.66;5094234;27;43218;-81
2020/12/14 11:04:45;;;;;;;8.80;8.10;;;;;;;15.55;47.49;98845.19;5092637;28;43292;-81
2020/12/14 11:07:13;;;;;;;9.57;8.77;;;;;;;14.58;51.18;98812.16;5169041;22;43361;-81
2020/12/14 11:09:41;;;;;;;8.73;8.03;;;;;;;13.81;52.14;98810.22;5070905;28;43478;-80
2020/12/14 11:12:08;;;;;;;8.03;7.40;;;;;;;13.64;52.92;98787.53;5087663;28;39926;-81
2020/12/14 11:14:36;;;;;;;8.23;7.47;;;;;;;14.62;50.68;98807.41;5087372;28;41977;-81
2020/12/14 11:20:36;;;;;;;8.43;7.67;;;;;;;13.90;51.56;98790.88;4969163;28;41431;-79
2020/12/14 11:23:22;;;;;;;9.07;8.27;;;;;;;15.05;49.60;98808.31;4955885;28;40580;-81
2020/12/14 11:25:50;;;;;;;7.30;6.67;;;;;;;17.23;46.83;98821.59;4956008;28;41971;-80
2020/12/14 11:28:18;;;;;;;8.00;7.40;;;;;;;18.99;41.61;98861.31;4969263;28;42724;-81
2020/12/14 11:30:45;;;;;;;6.90;6.30;;;;;;;19.71;40.19;98855.06;5094548;23;44557;-81
2020/12/14 11:33:12;;;;;;;7.20;6.60;;;;;;;18.71;41.21;98853.38;5047746;28;42148;-81
2020/12/14 11:35:39;;;;;;;7.63;6.93;;;;;;;17.16;42.98;98801.75;5048310;28;41644;-80
2020/12/14 11:38:06;;;;;;;8.40;7.70;;;;;;;16.69;44.41;98830.06;5048351;28;42904;-82
2020/12/14 11:43:34;;;;;;;7.73;7.03;;;;;;;17.03;45.14;98819.88;5021985;28;40092;-80
2020/12/14 11:46:01;;;;;;;7.17;6.60;;;;;;;17.08;45.06;98825.66;5016102;28;43419;-80
2020/12/14 11:48:29;;;;;;;7.30;6.70;;;;;;;18.52;41.88;98832.81;5027923;28;43780;-81
2020/12/14 11:50:57;;;;;;;7.33;6.37;;;;;;;19.26;39.32;98843.50;5000267;28;42897;-80
2020/12/14 11:53:24;;;;;;;7.23;6.53;;;;;;;19.64;39.09;98847.78;5126620;22;42161;-79
2020/12/14 11:55:51;;;;;;;6.43;5.93;;;;;;;19.66;39.38;98841.22;5111711;27;43592;-80
2020/12/14 11:58:18;;;;;;;6.67;6.17;;;;;;;20.20;37.47;98847.41;5095606;27;44316;-80
2020/12/14 12:00:46;;;;;;;5.90;5.40;;;;;;;20.60;37.73;98848.72;5094088;27;43229;-81
2020/12/14 12:03:13;;;;;;;6.60;6.00;;;;;;;20.05;37.99;98851.66;5078909;27;41813;-80
2020/12/14 12:05:40;;;;;;;7.63;7.03;;;;;;;19.19;38.88;98813.69;5145844;22;43174;-80
2020/12/14 12:08:07;;;;;;;7.00;6.40;;;;;;;18.56;40.20;98812.72;5069758;28;43792;-79
2020/12/14 12:10:35;;;;;;;6.77;6.17;;;;;;;18.83;39.34;98814.63;5050474;28;44316;-80
2020/12/14 12:13:03;;;;;;;8.07;7.47;;;;;;;19.90;37.71;98832.56;5067414;28;39718;-80
2020/12/14 12:15:45;;;;;;;7.60;7.00;;;;;;;21.02;35.62;98846.03;5065962;28;41691;-80
2020/12/14 12:18:13;;;;;;;6.87;6.27;;;;;;;21.61;34.75;98855.88;4969334;28;42507;-80
2020/12/14 12:20:44;;;;;;;7.17;6.53;;;;;;;22.27;33.16;98865.69;4955742;28;42816;-77
2020/12/14 12:23:11;;;;;;;7.20;6.53;;;;;;;22.50;33.41;98850.47;4984201;28;39626;-80
2020/12/14 12:25:38;;;;;;;6.60;6.10;;;;;;;22.86;32.97;98855.50;4970788;28;42242;-80
2020/12/14 12:28:05;;;;;;;5.97;5.47;;;;;;;23.16;32.82;98846.59;5106252;22;42748;-80
2020/12/14 12:30:59;;;;;;;5.90;5.50;;;;;;;23.58;31.97;98842.69;5179286;22;42634;-86
2020/12/14 12:33:27;;;;;;;6.63;6.10;;;;;;;24.19;30.95;98859.81;5067708;28;38745;-85
2020/12/14 12:35:55;;;;;;;6.10;5.67;;;;;;;24.24;30.46;98814.09;5067549;28;42569;-85
2020/12/14 12:38:22;;;;;;;6.87;6.27;;;;;;;24.68;30.06;98866.47;5053562;28;44194;-84
2020/12/14 12:40:50;;;;;;;6.13;5.63;;;;;;;24.72;30.24;98822.75;5132549;22;42559;-85
2020/12/14 12:43:17;;;;;;;6.30;5.70;;;;;;;24.88;29.98;98860.47;5046749;28;40794;-84
2020/12/14 12:45:45;;;;;;;5.80;5.40;;;;;;;23.81;30.99;98853.50;5028766;28;42256;-84
2020/12/14 12:48:12;;;;;;;6.77;6.27;;;;;;;23.55;31.47;98852.00;5039017;28;42932;-83
2020/12/14 12:57:51;;;;;;;6.53;6.03;;;;;;;19.83;35.68;98725.81;5146172;27;43259;-85
2020/12/14 13:00:21;;;;;;;5.87;5.37;;;;;;;19.34;37.14;98785.34;5103160;27;41802;-85
2020/12/14 13:03:10;;;;;;;5.57;5.17;;;;;;;18.71;38.62;98783.63;5151322;22;44080;31
2020/12/14 13:05:39;;;;;;;6.60;6.10;;;;;;;17.89;39.76;98773.56;4994159;28;40907;-85
2020/12/14 13:08:07;;;;;;;7.27;6.57;;;;;;;16.86;41.37;98736.63;5006153;28;43162;-82
2020/12/14 13:10:35;;;;;;;7.13;6.53;;;;;;;16.24;43.12;98736.84;5018020;28;42452;-83
2020/12/14 13:13:02;;;;;;;7.47;6.87;;;;;;;15.65;44.70;98734.00;5021807;28;42099;-82
2020/12/14 13:15:29;;;;;;;7.50;6.77;;;;;;;15.28;45.36;98731.72;5154801;22;39970;-81
2020/12/14 13:17:56;;;;;;;8.20;7.50;;;;;;;14.89;46.71;98724.38;5092652;27;42595;-83
2020/12/14 13:20:24;;;;;;;7.60;7.00;;;;;;;14.58;47.50;98710.88;5086645;28;44578;-83
2020/12/14 13:22:51;;;;;;;7.30;6.70;;;;;;;14.08;48.34;98652.81;5080826;27;42376;-84
2020/12/14 13:25:19;;;;;;;8.50;7.70;;;;;;;14.07;48.90;98685.72;5020916;28;50155;-85
2020/12/14 13:27:46;;;;;;;8.33;7.53;;;;;;;13.89;49.73;98691.53;5104540;23;41794;-85
2020/12/14 13:30:14;;;;;;;8.40;7.70;;;;;;;13.61;50.04;98691.97;5003583;28;50618;-83
2020/12/14 13:32:41;;;;;;;7.33;6.73;;;;;;;13.46;50.53;98694.03;5044421;28;42951;-84
2020/12/14 13:35:08;;;;;;;7.93;7.10;;;;;;;13.20;51.18;98696.03;5024716;28;41272;-84
2020/12/14 13:37:35;;;;;;;7.70;7.03;;;;;;;13.00;51.61;98680.66;5050557;28;43754;-84
2020/12/14 13:40:04;;;;;;;8.73;7.80;;;;;;;12.90;52.81;98680.53;5197280;23;42064;-79
2020/12/14 13:42:32;;;;;;;8.10;7.30;;;;;;;12.64;53.20;98672.78;4952892;28;42207;-79
2020/12/14 13:45:00;;;;;;;7.37;6.70;;;;;;;12.42;53.42;98677.03;4988199;28;40740;-79
2020/12/14 13:47:28;;;;;;;9.43;8.50;;;;;;;11.94;53.79;98640.75;4979003;28;41787;-78
2020/12/14 13:52:32;;;;;;;8.33;7.53;;;;;;;11.48;56.26;98622.75;4988513;28;42524;-80
2020/12/14 13:55:00;;;;;;;9.00;8.10;;;;;;;11.15;56.88;98621.44;4990988;28;40697;-80
2020/12/14 13:57:27;;;;;;;8.07;7.37;;;;;;;11.02;57.02;98657.69;4977717;28;42834;-80
2020/12/14 13:59:56;;;;;;;8.67;7.87;;;;;;;10.85;57.91;98665.94;4978084;28;44646;-80
2020/12/14 14:02:23;;;;;;;8.57;7.53;;;;;;;10.63;58.48;98661.19;5090061;23;42223;-80
2020/12/14 14:04:50;;;;;;;9.00;8.20;;;;;;;10.43;59.04;98662.50;5033136;28;41515;-79
2020/12/14 14:07:17;;;;;;;8.77;7.97;;;;;;;10.34;59.15;98692.22;5033214;28;42924;-80
2020/12/14 14:09:44;;;;;;;8.10;7.40;;;;;;;10.19;59.38;98682.59;5032573;28;43339;-80
2020/12/14 14:12:12;;;;;;;8.00;7.10;;;;;;;10.20;59.91;98702.84;5041372;28;42726;-79
2020/12/14 14:14:39;;;;;;;9.23;8.23;;;;;;;10.11;60.10;98699.91;5107231;22;41324;-81
2020/12/14 14:17:07;;;;;;;9.00;8.10;;;;;;;9.96;60.52;98691.13;4990037;28;42439;-79
2020/12/14 14:19:34;;;;;;;10.90;8.43;;;;;;;9.75;60.78;98681.88;4990982;28;42395;-78
2020/12/14 14:22:01;;;;;;;9.37;8.37;;;;;;;9.78;61.33;98705.47;4988492;28;42697;-79
2020/12/14 14:24:29;;;;;;;8.27;7.47;;;;;;;9.72;61.24;98699.63;5011932;28;46016;-79
2020/12/14 14:26:56;;;;;;;9.10;8.17;;;;;;;9.66;61.01;98704.44;5158317;22;20832;-78
2020/12/14 14:29:23;;;;;;;8.40;7.60;;;;;;;9.56;61.46;98701.50;5051487;28;20788;-79
2020/12/14 14:31:51;;;;;;;15.60;13.07;;;;;;;9.51;61.96;98698.31;5051425;28;20282;-79
2020/12/14 14:34:18;;;;;;;9.13;8.23;;;;;;;9.41;62.00;98699.78;5034211;28;20231;-79
2020/12/14 14:36:45;;;;;;;10.47;7.87;;;;;;;9.37;62.40;98698.28;5138134;22;20227;-78
2020/12/14 14:39:14;;;;;;;9.00;8.10;;;;;;;9.25;63.27;98697.22;4991205;28;20319;-80
2020/12/14 14:41:43;;;;;;;8.30;7.47;;;;;;;9.05;63.29;98683.47;5049728;28;20229;-79
2020/12/14 14:44:10;;;;;;;8.80;7.97;;;;;;;9.14;63.28;98712.03;5046482;28;20718;-78
2020/12/14 14:46:36;;;;;;;9.53;8.63;;;;;;;8.94;63.49;98692.88;5047004;28;20216;-79
2020/12/14 14:49:03;;;;;;;8.53;7.73;;;;;;;8.93;63.91;98709.66;5145330;22;20595;-79
2020/12/14 14:51:30;;;;;;;8.70;7.83;;;;;;;8.76;64.14;98686.06;5031155;28;20221;-78
2020/12/14 14:53:57;;;;;;;9.13;8.23;;;;;;;8.71;65.31;98697.81;4996651;28;20228;-78
2020/12/14 14:56:27;;;;;;;9.63;8.63;;;;;;;8.57;65.26;98695.94;5013992;28;20217;-78
2020/12/14 14:58:53;;;;;;;10.30;9.30;;;;;;;8.43;65.63;98687.97;5013750;28;20226;-78
2020/12/14 15:01:24;;;;;;;10.40;9.30;;;;;;;8.33;65.95;98694.69;5087303;23;20323;-78
2020/12/14 15:03:51;;;;;;;11.33;9.60;;;;;;;8.19;66.59;98690.16;5027756;28;20691;-82
2020/12/14 15:06:17;;;;;;;10.40;9.30;;;;;;;7.97;66.16;98666.75;5041499;28;20213;-80
2020/12/14 15:08:45;;;;;;;10.40;9.40;;;;;;;7.69;66.86;98648.94;5042123;28;21098;-81
2020/12/14 15:11:11;;;;;;;9.27;8.37;;;;;;;7.91;67.00;98688.19;5038108;28;20232;-79
2020/12/14 15:13:38;;;;;;;11.43;9.83;;;;;;;7.80;67.14;98693.19;5109898;23;20234;-80
2020/12/14 15:16:04;;;;;;;10.90;9.90;;;;;;;7.56;67.12;98675.09;5029756;28;20228;-79
2020/12/14 15:18:30;;;;;;;9.17;8.27;;;;;;;7.56;67.25;98688.28;5066790;28;20231;-79
2020/12/14 15:20:59;;;;;;;10.60;9.60;;;;;;;7.46;68.13;98679.16;5031969;28;20228;-78
2020/12/14 15:23:25;;;;;;;11.03;9.93;;;;;;;7.30;69.34;98673.00;5137728;22;20191;-80
2020/12/14 15:25:52;;;;;;;11.20;10.00;;;;;;;7.20;69.63;98683.16;5012820;28;20233;-79
2020/12/14 15:28:19;;;;;;;10.77;9.67;;;;;;;7.22;69.61;98685.72;5029694;28;20299;-79
2020/12/14 15:30:45;;;;;;;9.90;8.90;;;;;;;7.04;69.16;98670.88;5012755;28;20632;-79
2020/12/14 15:33:12;;;;;;;10.73;9.63;;;;;;;7.08;69.28;98698.72;5013028;28;20232;-79
2020/12/14 15:35:38;;;;;;;11.37;10.20;;;;;;;6.90;69.37;98683.88;5122401;22;20228;-78
2020/12/14 15:38:05;;;;;;;11.53;10.43;;;;;;;6.94;69.28;98701.22;5032695;28;20282;-79
2020/12/14 15:40:31;;;;;;;11.17;10.07;;;;;;;6.88;70.18;98698.91;5016182;28;20309;-79
2020/12/14 15:42:59;;;;;;;10.20;9.23;;;;;;;6.74;70.02;98692.53;5033041;28;20702;-78
2020/12/14 15:45:25;;;;;;;11.73;10.53;;;;;;;6.75;70.59;98707.41;5032115;28;20223;-78
2020/12/14 15:47:52;;;;;;;12.40;11.03;;;;;;;6.59;70.32;98685.41;5102034;23;20953;-80
2020/12/14 15:50:18;;;;;;;10.47;9.10;;;;;;;6.59;70.54;98711.69;5032787;28;20239;-78
2020/12/14 15:52:48;;;;;;;11.03;9.93;;;;;;;6.52;70.28;98710.31;5032686;28;20220;-79
2020/12/14 15:55:14;;;;;;;10.77;9.67;;;;;;;6.43;69.88;98703.69;5033145;28;20234;-78
2020/12/14 15:57:41;;;;;;;9.70;8.63;;;;;;;6.42;69.75;98698.53;5034508;28;20232;-79
2020/12/14 16:00:09;;;;;;;9.47;8.57;;;;;;;6.36;70.00;98694.41;5109971;23;20799;-79
2020/12/14 16:02:39;;;;;;;11.60;10.37;;;;;;;6.25;70.43;98682.69;5028037;28;20229;-80
2020/12/14 16:05:07;;;;;;;12.73;11.43;;;;;;;6.25;70.50;98686.19;5028600;28;20251;-80
2020/12/14 16:07:33;;;;;;;12.00;10.27;;;;;;;6.10;70.36;98677.25;5030628;28;20241;-80
2020/12/14 16:10:00;;;;;;;13.13;10.73;;;;;;;6.05;71.01;98681.88;5117757;22;20245;-80
2020/12/14 16:12:27;;;;;;;12.17;10.73;;;;;;;6.00;71.73;98673.34;5048718;28;20227;-80
2020/12/14 16:14:54;;;;;;;11.80;10.53;;;;;;;5.96;71.46;98674.41;5015990;28;20307;-80
2020/12/14 16:17:21;;;;;;;10.77;9.53;;;;;;;5.91;71.22;98681.66;4988107;28;20219;-78
2020/12/14 16:19:48;;;;;;;12.73;10.57;;;;;;;5.75;70.89;98670.13;4989930;28;20224;-79
2020/12/14 16:22:15;;;;;;;12.17;10.87;;;;;;;5.80;71.48;98694.41;5137444;22;20225;-80
2020/12/14 16:24:42;;;;;;;11.17;10.17;;;;;;;5.72;71.02;98692.13;5031872;28;20736;-79
2020/12/14 16:27:08;;;;;;;9.93;8.93;;;;;;;5.69;71.00;98675.63;5032205;28;20220;-80
2020/12/14 16:29:35;;;;;;;9.53;8.53;;;;;;;5.70;71.37;98672.94;5030327;28;20224;-79
2020/12/14 16:32:02;;;;;;;10.10;9.10;;;;;;;5.48;71.03;98629.34;5015664;28;20251;-80
2020/12/14 16:34:30;;;;;;;10.27;9.30;;;;;;;5.73;71.29;98666.69;5135737;23;20407;-80
2020/12/14 16:36:57;;;;;;;12.13;9.97;;;;;;;5.80;70.98;98677.81;5070025;28;20218;-78
2020/12/14 16:39:23;;;;;;;10.63;9.53;;;;;;;5.87;71.14;98685.31;5072421;28;20219;-78
2020/12/14 16:41:54;;;;;;;9.47;8.47;;;;;;;5.88;71.09;98687.06;5055865;28;20235;-79
2020/12/14 16:44:22;;;;;;;9.57;8.67;;;;;;;5.84;70.68;98692.47;5071109;28;20230;-80
2020/12/14 16:46:50;;;;;;;10.00;8.43;;;;;;;5.77;70.73;98689.28;5101684;23;20224;-79
2020/12/14 16:49:17;;;;;;;12.50;11.00;;;;;;;5.76;70.63;98692.84;5029408;28;20232;-79
2020/12/14 16:51:50;;;;;;;9.20;8.27;;;;;;;5.80;70.67;98711.97;5011756;28;20279;-80
2020/12/14 16:54:18;;;;;;;9.73;8.73;;;;;;;5.60;70.32;98681.31;5028794;28;20224;-80
2020/12/14 16:56:49;;;;;;;7.97;7.27;;;;;;;5.74;70.52;98707.81;5117049;22;20285;-80
2020/12/14 16:59:16;;;;;;;8.77;7.87;;;;;;;5.64;70.98;98677.63;5016204;28;20291;-80
2020/12/14 17:01:42;;;;;;;10.67;9.57;;;;;;;5.68;71.03;98695.84;5011702;28;20228;-79
2020/12/14 17:04:12;;;;;;;10.60;9.20;;;;;;;5.70;70.89;98698.38;5029870;28;20621;-79
2020/12/14 17:07:00;;;;;;;10.60;9.53;;;;;;;5.70;70.89;98701.00;5030944;28;20320;-81
2020/12/14 17:09:40;;;;;;;12.00;10.80;;;;;;;5.25;71.25;98617.25;5085057;23;20229;-83
2020/12/14 17:12:21;;;;;;;12.37;10.77;;;;;;;5.32;71.13;98622.16;4988779;28;20241;-80
2020/12/14 17:15:03;;;;;;;12.00;10.83;;;;;;;5.69;72.04;98678.25;4985132;28;20222;-79
2020/12/14 17:17:35;;;;;;;14.43;12.30;;;;;;;5.47;72.48;98656.53;4965775;28;20236;-80
2020/12/14 17:23:01;;;;;;;12.17;10.97;;;;;;;5.10;72.86;98634.53;4996896;28;20240;-79
2020/12/14 17:25:33;;;;;;;14.10;12.60;;;;;;;5.46;72.95;98712.59;4982833;28;20212;-79
2020/12/14 17:28:01;;;;;;;15.30;13.77;;;;;;;5.08;73.48;98657.38;4973927;28;20238;-81
2020/12/14 17:30:44;;;;;;;14.33;12.40;;;;;;;4.98;73.47;98641.16;4994930;28;20331;-82
2020/12/14 17:33:58;;;;;;;12.70;11.40;;;;;;;5.27;73.73;98700.28;5088356;23;20230;-80
2020/12/14 17:36:49;;;;;;;15.83;12.13;;;;;;;5.19;73.95;98681.41;4992720;28;20272;-81
2020/12/14 17:43:14;;;;;;;11.80;10.53;;;;;;;4.93;73.87;98643.16;5014105;28;20253;-80
2020/12/14 17:45:51;;;;;;;16.90;13.43;;;;;;;5.08;74.31;98667.88;5095285;23;20977;-80
2020/12/14 17:48:58;;;;;;;16.40;13.03;;;;;;;5.08;75.00;98675.75;5011483;28;20287;-80
2020/12/14 17:52:00;;;;;;;13.37;11.33;;;;;;;4.77;74.72;98636.00;5011028;28;20233;-81
2020/12/14 17:54:49;;;;;;;13.57;12.07;;;;;;;5.04;74.71;98684.69;4982940;28;20249;-80
2020/12/14 17:57:17;;;;;;;14.20;11.77;;;;;;;5.04;74.33;98684.69;5124277;23;20231;-80
2020/12/14 17:59:44;;;;;;;14.33;12.83;;;;;;;5.01;74.79;98676.94;5053194;28;20219;-79
2020/12/14 18:02:11;;;;;;;13.20;11.80;;;;;;;5.05;74.62;98695.13;5036576;28;20223;-79
2020/12/14 18:04:43;;;;;;;12.30;10.90;;;;;;;5.05;74.23;98687.25;5019947;28;20220;-80
2020/12/14 18:07:10;;;;;;;12.90;11.27;;;;;;;4.97;74.24;98680.59;5116577;23;20396;-80
2020/12/14 18:09:36;;;;;;;13.93;12.53;;;;;;;4.95;74.36;98669.31;5061884;28;20219;-81
2020/12/14 18:12:03;;;;;;;13.70;12.23;;;;;;;5.02;74.38;98678.63;5044292;28;20223;-80
2020/12/14 18:14:31;;;;;;;15.97;13.63;;;;;;;5.07;74.58;98677.50;5036563;28;20239;-83
2020/12/14 18:16:58;;;;;;;15.63;14.00;;;;;;;5.11;74.85;98678.25;5054284;28;20227;-80
2020/12/14 18:19:25;;;;;;;15.07;13.43;;;;;;;5.13;75.68;98665.06;5132846;23;21100;-80
2020/12/14 18:21:52;;;;;;;15.70;13.30;;;;;;;5.15;75.70;98661.44;5033968;28;20228;-80
2020/12/14 18:24:18;;;;;;;14.47;12.97;;;;;;;5.17;76.53;98662.25;5038740;28;20224;-81
2020/12/14 18:26:45;;;;;;;16.20;13.27;;;;;;;5.16;76.07;98665.78;5032598;28;20584;-80
2020/12/14 18:29:12;;;;;;;15.20;13.67;;;;;;;5.24;76.79;98657.56;5026034;28;20244;-80
2020/12/14 18:31:39;;;;;;;17.00;14.73;;;;;;;5.17;76.62;98643.88;5118761;23;20240;-81
